Time;durP1;ratioP1;P1;durP2;ratioP2;P2;SDS_P1;SDS_P2;PMS_P1;PMS_P2;Temp;Humidity;BMP_temperature;BMP_pressure;BME280_temperature;BME280_humidity;BME280_pressure;Samples;Min_cycle;Max_cycle;Signal;HPM_P1;HPM_P2
2021/12/06 00:00:58;;;;;;;46.40;31.20;;;;;;;4.92;66.89;98097.70;212196;1324;140305;-67
2021/12/06 00:06:03;;;;;;;70.00;40.40;;;;;;;4.82;66.85;98094.89;212183;1325;138928;-62
2021/12/06 00:11:08;;;;;;;68.00;37.70;;;;;;;4.74;66.88;98087.80;212390;1328;139963;-60
2021/12/06 00:16:18;;;;;;;59.00;37.70;;;;;;;4.67;66.67;98085.91;213194;1323;139489;-62
2021/12/06 00:21:23;;;;;;;66.20;41.20;;;;;;;4.61;67.06;98082.86;212234;1328;139537;-63
2021/12/06 00:26:26;;;;;;;63.90;39.30;;;;;;;4.61;67.35;98089.56;212113;1330;139590;-60
2021/12/06 00:31:33;;;;;;;63.60;38.00;;;;;;;4.59;67.32;98095.45;212208;1328;139308;-61
2021/12/06 00:36:40;;;;;;;61.30;36.20;;;;;;;4.61;67.30;98093.04;212610;1323;140197;-60
2021/12/06 00:41:43;;;;;;;61.30;38.90;;;;;;;4.65;67.34;98086.66;212310;1330;140078;-61
2021/12/06 00:46:46;;;;;;;67.40;39.80;;;;;;;4.71;67.47;98092.70;212136;1325;139562;-58
2021/12/06 00:51:50;;;;;;;63.10;38.50;;;;;;;4.75;67.42;98093.18;212861;1326;139343;-57
2021/12/06 00:56:53;;;;;;;64.50;38.90;;;;;;;4.72;67.21;98087.16;212291;1329;139754;-56
2021/12/06 01:01:57;;;;;;;63.30;38.50;;;;;;;4.67;67.23;98088.50;213246;1322;139517;-56
2021/12/06 01:07:01;;;;;;;58.60;38.20;;;;;;;4.58;67.22;98085.85;212849;1325;140245;-59
2021/12/06 01:12:08;;;;;;;60.60;37.80;;;;;;;4.48;67.19;98081.96;212321;1322;140177;-57
2021/12/06 01:17:12;;;;;;;60.10;39.00;;;;;;;4.42;67.22;98077.52;212225;1325;140425;-61
2021/12/06 01:22:25;;;;;;;63.80;39.10;;;;;;;4.34;67.15;98080.06;212791;1325;139469;-60
2021/12/06 01:33:03;;;;;;;66.20;39.00;;;;;;;4.24;67.17;98104.64;212151;1326;140349;-59
2021/12/06 01:43:22;;;;;;;65.60;40.30;;;;;;;4.33;67.58;98079.44;212822;1322;139769;-60
2021/12/06 01:48:26;;;;;;;67.00;41.00;;;;;;;4.34;67.31;98070.06;212391;1326;139942;-58
2021/12/06 01:53:30;;;;;;;66.20;40.50;;;;;;;4.29;67.46;98062.73;212258;1326;139294;-59
2021/12/06 01:58:33;;;;;;;62.30;40.40;;;;;;;4.22;67.19;98064.89;212985;1322;139247;-55
2021/12/06 02:03:38;;;;;;;72.80;41.90;;;;;;;4.13;67.16;98072.90;212509;1322;138736;-59
2021/12/06 02:08:42;;;;;;;67.40;41.00;;;;;;;4.13;67.52;98077.48;212078;1330;138931;-57
2021/12/06 02:13:53;;;;;;;65.80;41.90;;;;;;;4.09;67.61;98078.05;212354;1327;139011;-59
2021/12/06 02:19:03;;;;;;;70.20;43.00;;;;;;;4.04;67.37;98069.88;212149;1329;139768;-59
2021/12/06 02:24:09;;;;;;;70.20;42.40;;;;;;;3.95;67.28;98089.97;212371;1323;140083;-61
2021/12/06 02:29:12;;;;;;;75.60;44.40;;;;;;;3.84;67.38;98101.76;212470;1322;139841;-62
2021/12/06 02:34:17;;;;;;;76.30;43.90;;;;;;;3.82;67.74;98105.56;212966;1327;139955;-60
2021/12/06 02:39:23;;;;;;;78.70;47.40;;;;;;;3.85;67.81;98099.25;212585;1329;139691;-60
2021/12/06 02:44:27;;;;;;;78.10;46.20;;;;;;;3.90;67.99;98093.04;212217;1322;138902;-60
2021/12/06 02:49:31;;;;;;;79.40;48.20;;;;;;;3.95;68.08;98087.16;212684;1323;139168;-60
2021/12/06 02:54:35;;;;;;;78.30;46.10;;;;;;;3.97;68.12;98102.66;212626;1323;138891;-61
2021/12/06 02:59:40;;;;;;;76.60;45.90;;;;;;;3.94;67.96;98109.85;212445;1329;139295;-60
2021/12/06 03:04:44;;;;;;;79.20;48.40;;;;;;;3.93;68.14;98115.17;212446;1324;139696;-61
2021/12/06 03:09:51;;;;;;;90.80;52.50;;;;;;;3.91;68.27;98114.76;212083;1331;139948;-61
2021/12/06 03:14:57;;;;;;;89.30;51.90;;;;;;;3.93;68.10;98105.50;212335;1319;210830;-63
2021/12/06 03:20:06;;;;;;;89.90;52.40;;;;;;;3.96;68.23;98099.89;213208;1322;139758;-61
2021/12/06 03:25:12;;;;;;;88.90;52.10;;;;;;;4.04;68.28;98099.52;212224;1326;140227;-61
2021/12/06 03:30:16;;;;;;;98.00;52.10;;;;;;;4.09;68.44;98098.03;212551;1324;139013;-61
2021/12/06 03:35:20;;;;;;;89.70;52.30;;;;;;;4.17;68.52;98090.63;212682;1323;140449;-58
2021/12/06 03:40:24;;;;;;;87.10;51.50;;;;;;;4.22;68.43;98076.67;212457;1330;139055;-60
2021/12/06 03:45:27;;;;;;;89.50;52.40;;;;;;;4.23;68.53;98072.89;212139;1328;140533;-59
2021/12/06 03:50:32;;;;;;;89.50;53.50;;;;;;;4.22;68.34;98079.80;212406;1323;139459;-56
2021/12/06 03:55:36;;;;;;;93.60;54.60;;;;;;;4.15;68.08;98077.02;212962;1322;139329;-61
2021/12/06 04:00:39;;;;;;;107.30;62.80;;;;;;;4.07;68.14;98082.73;212593;1323;139274;-56
2021/12/06 04:05:43;;;;;;;109.80;60.50;;;;;;;4.05;68.21;98075.77;212533;1325;140228;-58
2021/12/06 04:10:46;;;;;;;108.00;62.60;;;;;;;4.10;68.26;98078.86;212016;1322;141335;-58
2021/12/06 04:15:51;;;;;;;103.90;62.50;;;;;;;4.14;68.17;98084.13;212872;1322;140197;-60
2021/12/06 04:20:54;;;;;;;104.70;62.20;;;;;;;4.12;68.14;98077.16;213038;1322;139135;-62
2021/12/06 04:26:00;;;;;;;98.70;60.20;;;;;;;4.07;67.94;98110.25;211943;1330;140590;-61
2021/12/06 04:31:04;;;;;;;110.50;65.60;;;;;;;3.98;68.04;98107.54;212216;1329;139172;-58
2021/12/06 04:36:08;;;;;;;105.90;63.50;;;;;;;3.95;68.23;98102.11;212772;1325;140631;-58
2021/12/06 04:41:11;;;;;;;109.60;64.20;;;;;;;3.88;68.14;98149.12;212797;1322;139785;-58
2021/12/06 04:46:16;;;;;;;106.70;62.20;;;;;;;3.81;68.28;98136.10;212774;1323;139923;-61
2021/12/06 04:51:20;;;;;;;283.00;170.10;;;;;;;3.90;68.64;98126.55;213262;1323;140280;-59
2021/12/06 04:56:32;;;;;;;109.30;62.40;;;;;;;4.13;69.18;98131.52;212498;1324;139408;-59
2021/12/06 05:01:37;;;;;;;103.50;60.50;;;;;;;4.28;68.89;98139.70;212294;1327;140879;-60
2021/12/06 05:06:44;;;;;;;98.20;56.60;;;;;;;4.32;68.72;98139.17;212275;1326;139440;-59
2021/12/06 05:11:47;;;;;;;97.50;56.80;;;;;;;4.31;68.56;98151.17;213419;1320;140213;-58
2021/12/06 05:16:52;;;;;;;160.80;102.20;;;;;;;4.29;68.49;98155.85;212258;1328;139957;-58
2021/12/06 05:21:57;;;;;;;101.90;61.10;;;;;;;4.37;68.71;98157.53;211954;1331;139464;-59
2021/12/06 05:27:01;;;;;;;99.30;56.70;;;;;;;4.41;68.55;98166.08;212230;1323;139452;-60
2021/12/06 05:32:05;;;;;;;98.10;57.70;;;;;;;4.35;68.24;98172.77;212750;1322;139189;-57
2021/12/06 05:37:12;;;;;;;94.40;53.80;;;;;;;4.33;68.15;98183.02;212466;1322;141604;-62
2021/12/06 05:42:15;;;;;;;93.90;56.30;;;;;;;4.36;68.40;98181.13;212700;1322;139465;-58
2021/12/06 05:47:18;;;;;;;92.20;56.40;;;;;;;4.39;68.48;98182.55;212689;1323;139674;-63
2021/12/06 05:52:22;;;;;;;97.80;55.30;;;;;;;4.39;68.43;98184.30;213022;1322;139323;-59
2021/12/06 05:57:26;;;;;;;95.90;55.40;;;;;;;4.39;68.48;98179.19;212918;1322;138999;-59
2021/12/06 06:02:30;;;;;;;93.30;55.80;;;;;;;4.35;68.39;98180.45;212194;1321;139085;-63
2021/12/06 06:07:33;;;;;;;92.10;54.40;;;;;;;4.34;68.57;98178.73;212777;1322;141474;-63
2021/12/06 06:12:36;;;;;;;89.20;53.10;;;;;;;4.31;68.64;98181.55;212422;1328;139980;-56
2021/12/06 06:17:43;;;;;;;104.00;58.10;;;;;;;4.26;68.75;98177.90;212146;1322;139287;-57
2021/12/06 06:22:47;;;;;;;93.90;55.30;;;;;;;4.27;68.62;98184.17;212232;1325;141790;-61
2021/12/06 06:27:50;;;;;;;97.80;57.00;;;;;;;4.31;68.71;98185.57;212774;1323;140004;-62
2021/12/06 06:32:53;;;;;;;96.40;57.00;;;;;;;4.35;68.77;98188.00;212485;1322;141154;-58
2021/12/06 06:37:57;;;;;;;90.90;54.80;;;;;;;4.40;69.02;98199.33;212698;1326;139223;-59
2021/12/06 06:43:01;;;;;;;87.40;53.40;;;;;;;4.45;69.09;98205.77;212615;1328;142353;-58
2021/12/06 06:48:05;;;;;;;88.60;52.10;;;;;;;4.46;68.86;98223.29;212405;1322;139046;-60
2021/12/06 06:53:08;;;;;;;92.20;56.80;;;;;;;4.40;68.83;98234.66;212463;1322;139209;-61
2021/12/06 06:58:11;;;;;;;93.00;56.60;;;;;;;4.37;68.62;98237.93;212196;1331;139372;-61
2021/12/06 07:03:14;;;;;;;101.40;58.50;;;;;;;4.36;68.96;98241.89;212930;1325;139387;-62
2021/12/06 07:08:18;;;;;;;80.20;48.10;;;;;;;4.37;68.94;98260.06;212457;1325;139495;-58
2021/12/06 07:13:23;;;;;;;89.90;53.90;;;;;;;4.45;68.94;98263.52;212094;1324;140193;-56
2021/12/06 07:18:25;;;;;;;89.10;54.80;;;;;;;4.49;68.79;98266.48;212906;1325;139411;-61
2021/12/06 07:23:28;;;;;;;85.40;49.70;;;;;;;4.48;68.72;98268.65;212752;1322;139642;-60
2021/12/06 07:28:32;;;;;;;85.90;50.40;;;;;;;4.43;68.66;98269.27;212519;1322;140331;-60
2021/12/06 07:33:37;;;;;;;90.70;54.50;;;;;;;4.40;68.76;98271.52;212508;1322;139596;-62
2021/12/06 07:38:41;;;;;;;90.90;55.00;;;;;;;4.34;68.68;98272.35;212206;1329;139040;-58
2021/12/06 07:43:45;;;;;;;89.20;53.60;;;;;;;4.26;68.51;98274.82;211941;1331;139271;-59
2021/12/06 07:48:52;;;;;;;95.90;53.80;;;;;;;4.19;68.53;98277.48;212270;1325;139318;-62
2021/12/06 07:53:58;;;;;;;90.80;54.30;;;;;;;4.11;68.54;98271.67;212237;1328;139467;-59
2021/12/06 07:59:01;;;;;;;98.20;58.00;;;;;;;4.14;68.74;98270.34;212451;1322;141102;-62
2021/12/06 08:04:04;;;;;;;100.20;57.50;;;;;;;4.15;68.73;98280.80;212934;1322;139339;-62
2021/12/06 08:09:08;;;;;;;175.20;102.50;;;;;;;4.20;69.01;98287.56;212328;1325;140170;-57
2021/12/06 08:14:12;;;;;;;101.30;61.10;;;;;;;4.28;68.97;98286.69;212348;1322;140442;-58
2021/12/06 08:19:15;;;;;;;99.90;57.20;;;;;;;4.24;68.68;98282.49;212098;1328;139426;-64
2021/12/06 08:24:19;;;;;;;104.10;59.00;;;;;;;4.19;68.76;98290.46;212171;1329;140185;-64
2021/12/06 08:29:23;;;;;;;95.80;54.80;;;;;;;4.16;68.67;98291.84;212326;1326;139615;-59
2021/12/06 08:34:26;;;;;;;70.70;40.00;;;;;;;4.13;68.58;98294.09;213235;1323;139861;-57
2021/12/06 08:39:29;;;;;;;95.30;55.70;;;;;;;4.11;68.61;98294.16;212756;1322;139082;-56
2021/12/06 08:44:33;;;;;;;91.60;51.80;;;;;;;4.13;68.97;98297.25;212214;1324;139701;-57
2021/12/06 08:49:37;;;;;;;81.90;47.60;;;;;;;4.18;68.84;98296.09;212054;1330;139874;-58
2021/12/06 08:54:40;;;;;;;79.80;47.30;;;;;;;4.31;68.92;98300.23;212328;1326;141827;-63
2021/12/06 08:59:43;;;;;;;70.20;40.60;;;;;;;4.43;69.10;98297.38;212463;1322;140117;-59
2021/12/06 09:04:47;;;;;;;79.70;42.90;;;;;;;4.47;68.97;98301.17;212148;1325;138786;-57
2021/12/06 09:09:55;;;;;;;66.40;39.80;;;;;;;4.46;68.67;98316.02;212966;1328;139127;-55
2021/12/06 09:15:06;;;;;;;66.20;38.00;;;;;;;4.43;68.64;98315.44;212084;1329;139236;-59
2021/12/06 09:20:13;;;;;;;69.40;39.40;;;;;;;4.39;68.60;98314.05;213310;1325;139550;-57
2021/12/06 09:25:18;;;;;;;76.90;43.50;;;;;;;4.34;68.64;98319.05;212158;1322;139185;-59
2021/12/06 09:30:26;;;;;;;77.10;42.90;;;;;;;4.31;68.65;98317.95;212096;1328;139560;-60
2021/12/06 09:35:30;;;;;;;87.30;43.80;;;;;;;4.34;69.01;98323.29;212722;1322;139293;-58
2021/12/06 09:40:36;;;;;;;76.80;39.50;;;;;;;4.34;68.88;98321.86;212516;1328;140468;-60
2021/12/06 09:45:41;;;;;;;71.30;41.10;;;;;;;4.40;68.79;98325.77;212433;1329;140243;-58
2021/12/06 09:50:50;;;;;;;70.00;40.00;;;;;;;4.45;69.01;98319.72;211997;1325;140981;-59
2021/12/06 09:55:56;;;;;;;62.90;36.00;;;;;;;4.47;68.73;98323.65;212263;1324;139213;-58
2021/12/06 10:01:08;;;;;;;60.30;33.80;;;;;;;4.47;68.99;98318.75;213142;1322;139720;-58
2021/12/06 10:06:12;;;;;;;72.70;37.80;;;;;;;5.30;74.50;98316.21;212151;1323;139310;-58
2021/12/06 10:11:17;;;;;;;358.90;214.90;;;;;;;8.44;80.05;98302.40;212206;1329;139840;-58
2021/12/06 10:16:21;;;;;;;;;;;;;;;10.47;76.04;98287.89;212381;1328;140102;-61
2021/12/06 10:21:27;;;;;;;53.50;32.20;;;;;;;10.56;67.83;98283.36;211970;1331;125237;-59
2021/12/06 10:26:32;;;;;;;53.20;30.80;;;;;;;9.30;64.21;98289.34;212022;1329;140302;-61
2021/12/06 10:31:42;;;;;;;124.20;75.80;;;;;;;8.10;63.74;98293.34;213218;1323;139223;-59
2021/12/06 10:36:46;;;;;;;60.50;34.90;;;;;;;7.27;64.33;98293.42;212763;1329;140579;-59
2021/12/06 10:41:51;;;;;;;49.10;30.40;;;;;;;6.71;64.72;98298.52;212168;1327;139175;-61
2021/12/06 10:46:54;;;;;;;;;;;;;;;6.30;65.47;98301.96;212876;1323;139551;-57
2021/12/06 10:51:57;;;;;;;44.60;26.10;;;;;;;6.02;65.95;98304.91;212388;1325;125106;-57
2021/12/06 10:57:03;;;;;;;37.90;22.30;;;;;;;5.76;66.02;98312.09;213104;1328;139120;-58
2021/12/06 11:02:11;;;;;;;25.90;16.20;;;;;;;5.62;66.38;98314.28;213151;1325;139745;-59
2021/12/06 11:07:15;;;;;;;22.30;13.60;;;;;;;5.46;66.64;98317.40;212875;1323;139699;-58
2021/12/06 11:12:20;;;;;;;23.10;13.80;;;;;;;5.32;66.62;98313.60;211908;1330;140935;-62
2021/12/06 11:17:23;;;;;;;20.80;13.50;;;;;;;5.25;66.76;98319.43;212295;1327;241662;-59
2021/12/06 11:22:26;;;;;;;20.40;13.10;;;;;;;5.19;67.16;98319.70;212506;1322;141080;-59
2021/12/06 11:27:38;;;;;;;23.60;13.90;;;;;;;5.15;67.31;98324.69;212067;1327;140057;-59
2021/12/06 11:32:45;;;;;;;23.00;13.80;;;;;;;5.10;67.33;98323.88;212093;1328;140052;-60
2021/12/06 11:37:52;;;;;;;22.60;13.90;;;;;;;5.07;67.64;98330.16;212969;1324;140893;-58
2021/12/06 11:43:03;;;;;;;26.40;15.50;;;;;;;5.06;67.70;98329.87;212529;1326;139097;-61
2021/12/06 11:48:09;;;;;;;24.80;15.20;;;;;;;5.06;67.65;98328.10;212326;1322;139412;-61
2021/12/06 11:53:14;;;;;;;26.70;15.80;;;;;;;4.99;67.81;98330.93;212330;1324;139458;-60
2021/12/06 11:58:32;;;;;;;27.80;17.00;;;;;;;4.91;67.74;98329.37;212975;1321;139209;-60
2021/12/06 12:03:37;;;;;;;31.70;19.20;;;;;;;4.86;67.90;98327.55;212591;1328;139233;-60
2021/12/06 12:08:41;;;;;;;30.80;18.90;;;;;;;4.84;67.99;98332.58;212348;1325;140166;-58
2021/12/06 12:13:44;;;;;;;35.20;20.30;;;;;;;4.86;67.98;98325.27;212343;1328;139715;-61
2021/12/06 12:18:48;;;;;;;36.20;20.70;;;;;;;4.87;68.00;98329.94;212476;1324;140190;-59
2021/12/06 12:23:52;;;;;;;35.20;20.80;;;;;;;4.85;67.82;98328.65;212583;1322;139201;-58
2021/12/06 12:29:01;;;;;;;38.10;21.90;;;;;;;4.84;67.94;98327.11;212562;1328;138768;-58
2021/12/06 12:34:09;;;;;;;33.30;20.10;;;;;;;4.85;68.14;98334.64;212155;1328;139103;-59
2021/12/06 12:39:20;;;;;;;33.00;19.80;;;;;;;4.84;68.13;98339.44;212813;1326;142521;-58
2021/12/06 12:44:24;;;;;;;32.50;20.20;;;;;;;4.79;67.99;98335.46;212146;1324;139199;-59
2021/12/06 12:49:30;;;;;;;37.40;23.00;;;;;;;4.74;67.97;98335.33;212033;1329;139972;-58
2021/12/06 12:54:33;;;;;;;35.00;20.40;;;;;;;4.76;68.17;98333.86;212596;1325;138982;-63
2021/12/06 12:59:44;;;;;;;35.70;21.30;;;;;;;4.74;68.03;98333.39;212180;1323;140414;-61
2021/12/06 13:04:59;;;;;;;37.00;22.40;;;;;;;4.76;68.11;98339.48;212637;1326;139506;-60
2021/12/06 13:10:22;;;;;;;35.80;22.10;;;;;;;4.77;68.12;98351.56;212251;1328;139124;-60
2021/12/06 13:15:54;;;;;;;33.50;19.60;;;;;;;4.74;68.02;98359.60;212167;1324;139237;-60
2021/12/06 13:20:57;;;;;;;34.20;20.20;;;;;;;4.70;67.92;98365.58;212613;1322;139955;-58
2021/12/06 13:26:09;;;;;;;32.30;19.60;;;;;;;4.70;68.11;98367.73;212197;1330;140302;-57
2021/12/06 13:31:23;;;;;;;30.80;17.20;;;;;;;4.65;68.09;98375.66;212489;1325;139736;-58
2021/12/06 13:36:44;;;;;;;31.80;18.80;;;;;;;4.58;67.95;98383.77;212066;1328;139135;-63
2021/12/06 13:41:48;;;;;;;30.40;17.10;;;;;;;4.57;68.13;98391.35;212560;1328;139706;-60
2021/12/06 13:46:52;;;;;;;34.00;18.70;;;;;;;4.54;68.29;98389.42;212326;1327;139042;-60
2021/12/06 13:51:59;;;;;;;28.50;17.80;;;;;;;4.53;67.92;98395.08;212541;1323;139496;-64
2021/12/06 13:57:11;;;;;;;31.20;18.60;;;;;;;4.54;68.02;98407.13;212202;1329;141078;-62
2021/12/06 14:02:24;;;;;;;29.10;18.40;;;;;;;4.55;68.03;98419.74;212089;1329;139607;-58
2021/12/06 14:07:29;;;;;;;26.60;17.50;;;;;;;4.51;67.94;98432.05;212479;1319;139531;-61
2021/12/06 14:12:35;;;;;;;30.10;18.40;;;;;;;4.43;67.82;98439.27;212595;1325;139201;-59
2021/12/06 14:17:38;;;;;;;30.90;17.10;;;;;;;4.37;67.80;98443.77;212376;1326;139611;-62
2021/12/06 14:22:44;;;;;;;31.10;17.90;;;;;;;4.33;67.85;98444.64;213077;1321;139020;-63
2021/12/06 14:27:49;;;;;;;28.70;18.30;;;;;;;4.27;67.65;98452.80;212909;1322;139511;-59
2021/12/06 14:32:58;;;;;;;28.30;18.20;;;;;;;4.22;67.96;98455.34;212303;1325;139241;-60
2021/12/06 14:38:01;;;;;;;28.90;16.80;;;;;;;4.17;67.95;98454.15;212352;1329;140283;-64
2021/12/06 14:43:14;;;;;;;25.70;15.20;;;;;;;4.11;67.72;98447.42;212295;1328;139192;-62
2021/12/06 14:48:22;;;;;;;21.90;13.80;;;;;;;4.11;68.04;98446.00;212609;1321;140312;-60
2021/12/06 14:53:37;;;;;;;21.00;13.80;;;;;;;4.09;67.88;98450.30;211875;1327;139412;-63
2021/12/06 14:58:41;;;;;;;21.70;14.20;;;;;;;4.06;68.04;98454.84;212527;1325;138832;-62
2021/12/06 15:03:52;;;;;;;23.10;14.10;;;;;;;4.10;68.27;98454.67;212246;1329;139722;-61
2021/12/06 15:08:56;;;;;;;24.20;15.60;;;;;;;4.10;67.93;98458.53;211742;1327;139792;-60
2021/12/06 15:14:05;;;;;;;35.30;21.00;;;;;;;4.14;68.43;98460.96;212974;1323;139284;-58
2021/12/06 15:19:16;;;;;;;30.20;17.20;;;;;;;4.12;67.81;98465.65;212307;1322;140562;-59
2021/12/06 15:24:20;;;;;;;30.30;17.80;;;;;;;4.00;67.89;98472.11;212982;1322;139736;-65
2021/12/06 15:29:34;;;;;;;28.70;17.10;;;;;;;3.92;68.18;98474.77;212389;1326;138638;-63
2021/12/06 15:34:40;;;;;;;30.10;17.30;;;;;;;3.87;67.96;98475.52;213016;1323;139861;-58
2021/12/06 15:39:45;;;;;;;30.90;17.20;;;;;;;3.85;68.05;98477.37;212325;1325;140384;-63
2021/12/06 15:44:51;;;;;;;33.90;19.00;;;;;;;3.87;68.25;98478.84;212385;1325;139430;-59
2021/12/06 15:49:56;;;;;;;28.90;16.70;;;;;;;3.91;68.24;98479.36;212131;1327;139819;-62
2021/12/06 15:55:13;;;;;;;30.30;18.20;;;;;;;3.91;68.17;98484.98;212047;1329;139614;-59
2021/12/06 16:00:17;;;;;;;30.30;18.20;;;;;;;3.89;68.20;98477.02;213050;1322;139116;-62
2021/12/06 16:05:25;;;;;;;28.60;17.90;;;;;;;3.86;68.18;98480.30;212259;1329;139465;-58
2021/12/06 16:10:32;;;;;;;32.70;18.60;;;;;;;3.83;68.15;98480.23;212363;1322;141370;-58
2021/12/06 16:15:36;;;;;;;34.20;20.00;;;;;;;3.81;68.39;98488.77;212258;1323;139371;-59
2021/12/06 16:20:56;;;;;;;31.20;18.50;;;;;;;3.77;68.14;98497.71;212527;1328;140026;-59
2021/12/06 16:26:06;;;;;;;29.10;17.60;;;;;;;3.70;68.34;98501.84;212287;1325;138866;-59
2021/12/06 16:31:09;;;;;;;56.20;31.80;;;;;;;3.68;68.09;98511.25;212267;1326;141476;-58
2021/12/06 16:36:49;;;;;;;28.30;16.20;;;;;;;3.78;68.68;98513.98;213103;1322;140142;-64
2021/12/06 16:42:12;;;;;;;29.20;16.10;;;;;;;3.83;68.23;98512.88;212005;1330;139506;-60
2021/12/06 16:47:22;;;;;;;27.50;15.40;;;;;;;3.83;68.12;98504.48;212411;1325;139283;-60
2021/12/06 16:52:40;;;;;;;24.30;15.20;;;;;;;3.75;67.99;98509.20;212293;1325;139181;-59
2021/12/06 16:57:44;;;;;;;27.10;15.60;;;;;;;3.68;68.11;98507.21;213311;1322;139398;-60
2021/12/06 17:02:54;;;;;;;25.00;15.80;;;;;;;3.60;67.96;98500.17;213550;1319;138991;-58
2021/12/06 17:08:04;;;;;;;26.50;16.10;;;;;;;3.54;67.92;98505.67;212535;1322;138761;-60
2021/12/06 17:13:09;;;;;;;28.30;14.90;;;;;;;3.53;68.16;98503.63;212500;1321;139909;-58
2021/12/06 17:18:14;;;;;;;27.80;16.10;;;;;;;3.50;67.96;98503.25;212291;1322;139600;-61
2021/12/06 17:23:23;;;;;;;31.60;16.40;;;;;;;3.50;68.07;98502.88;212894;1316;140424;-59
2021/12/06 17:28:30;;;;;;;27.60;17.50;;;;;;;3.53;68.14;98507.13;212946;1326;142181;-60
2021/12/06 17:33:46;;;;;;;29.80;16.90;;;;;;;3.61;68.21;98512.05;212824;1325;139420;-61
2021/12/06 17:38:54;;;;;;;165.20;89.10;;;;;;;3.69;68.09;98515.07;212488;1322;140261;-59
2021/12/06 17:44:00;;;;;;;30.10;16.70;;;;;;;3.81;68.35;98514.73;212044;1322;139887;-59
2021/12/06 17:49:07;;;;;;;27.10;14.20;;;;;;;3.81;67.90;98512.98;212727;1322;140884;-63
2021/12/06 17:54:14;;;;;;;22.80;14.10;;;;;;;3.74;67.82;98522.24;211873;1331;138988;-61
2021/12/06 17:59:18;;;;;;;21.60;13.50;;;;;;;3.67;67.69;98532.51;212202;1329;139056;-63
2021/12/06 18:04:44;;;;;;;20.00;13.20;;;;;;;3.62;67.78;98534.13;212667;1322;139385;-65
2021/12/06 18:09:47;;;;;;;;;;;;;;;3.54;67.61;98536.55;212321;1325;139016;-59
2021/12/06 18:14:51;;;;;;;28.10;15.90;;;;;;;3.53;67.92;98545.54;212065;1326;125914;-65
2021/12/06 18:19:54;;;;;;;21.30;13.90;;;;;;;3.61;68.00;98552.27;211784;1331;140094;-59
2021/12/06 18:24:57;;;;;;;22.10;13.70;;;;;;;3.63;67.69;98557.95;212090;1329;139287;-59
2021/12/06 18:30:02;;;;;;;23.30;14.30;;;;;;;3.63;67.61;98557.95;212060;1330;139419;-60
2021/12/06 18:35:06;;;;;;;20.30;13.30;;;;;;;3.61;67.58;98556.61;212158;1323;138898;-60
2021/12/06 18:40:19;;;;;;;21.60;13.50;;;;;;;3.59;67.66;98563.89;213060;1323;139263;-59
2021/12/06 18:45:26;;;;;;;21.00;13.50;;;;;;;3.61;67.68;98564.18;211906;1328;139701;-64
2021/12/06 18:50:34;;;;;;;21.40;13.80;;;;;;;3.61;67.54;98565.05;212447;1324;139299;-64
2021/12/06 18:55:37;;;;;;;22.10;13.60;;;;;;;3.59;67.44;98568.30;212277;1326;138923;-65
2021/12/06 19:00:40;;;;;;;20.00;12.90;;;;;;;3.56;67.53;98570.52;213002;1323;139260;-62
2021/12/06 19:05:46;;;;;;;19.30;12.50;;;;;;;3.52;67.60;98581.52;212434;1322;140212;-61
2021/12/06 19:10:50;;;;;;;21.00;12.70;;;;;;;3.50;67.84;98591.10;212066;1330;139546;-57
2021/12/06 19:15:54;;;;;;;19.20;11.90;;;;;;;3.53;67.63;98592.02;212568;1320;156315;-59
2021/12/06 19:20:58;;;;;;;20.20;13.20;;;;;;;3.58;67.77;98596.54;212592;1326;141553;-60
2021/12/06 19:26:02;;;;;;;21.10;13.00;;;;;;;3.61;67.80;98606.64;211878;1325;139395;-61
2021/12/06 19:31:06;;;;;;;17.90;12.30;;;;;;;3.65;67.86;98609.10;212281;1325;139544;-59
2021/12/06 19:36:10;;;;;;;17.10;10.60;;;;;;;3.64;67.78;98607.05;212308;1325;140817;-60
2021/12/06 19:41:16;;;;;;;20.00;13.10;;;;;;;3.58;67.61;98600.44;212581;1325;140002;-62
2021/12/06 19:46:20;;;;;;;18.20;12.40;;;;;;;3.53;67.58;98600.09;212105;1329;139064;-58
2021/12/06 19:51:24;;;;;;;18.10;11.50;;;;;;;3.46;67.64;98593.86;212451;1323;138917;-60
2021/12/06 19:56:29;;;;;;;19.60;12.20;;;;;;;3.39;67.69;98603.27;212919;1320;140165;-66
2021/12/06 20:01:33;;;;;;;21.40;13.20;;;;;;;3.37;67.62;98606.00;212164;1326;139089;-59
2021/12/06 20:06:37;;;;;;;20.50;13.40;;;;;;;3.33;67.72;98604.59;212424;1323;139398;-60
2021/12/06 20:11:41;;;;;;;21.70;13.10;;;;;;;3.33;67.78;98597.91;212620;1322;142376;-66
2021/12/06 20:16:46;;;;;;;24.80;15.00;;;;;;;3.37;68.04;98596.86;212414;1321;139444;-62
2021/12/06 20:21:49;;;;;;;301.70;187.00;;;;;;;3.50;68.40;98596.55;212065;1322;139750;-66
2021/12/06 20:26:53;;;;;;;27.40;16.90;;;;;;;3.80;68.81;98588.30;211831;1329;139541;-57
2021/12/06 20:31:58;;;;;;;26.90;16.30;;;;;;;3.82;68.11;98591.02;212166;1325;139240;-59
2021/12/06 20:37:01;;;;;;;224.60;157.10;;;;;;;3.72;67.72;98596.16;212578;1326;139799;-62
2021/12/06 20:42:06;;;;;;;43.80;26.30;;;;;;;3.82;68.34;98596.62;213448;1322;139807;-61
2021/12/06 20:47:09;;;;;;;23.20;14.70;;;;;;;3.84;67.86;98596.70;212410;1322;139400;-61
2021/12/06 20:52:12;;;;;;;23.30;14.60;;;;;;;3.69;67.39;98590.16;212867;1322;139277;-59
2021/12/06 20:57:16;;;;;;;20.30;13.00;;;;;;;3.55;67.33;98591.93;212870;1322;139371;-59
2021/12/06 21:02:19;;;;;;;21.60;13.40;;;;;;;3.46;67.38;98590.88;213114;1322;138936;-59
2021/12/06 21:07:22;;;;;;;23.00;14.60;;;;;;;3.40;67.57;98593.96;212673;1326;140073;-59
2021/12/06 21:13:00;;;;;;;23.30;15.40;;;;;;;3.43;67.68;98590.35;212234;1325;140840;-60
2021/12/06 21:17:57;;;;;;;26.10;15.80;;;;;;;3.48;67.80;98586.80;212496;1326;141103;-64
2021/12/06 21:23:04;;;;;;;26.50;16.50;;;;;;;3.48;67.61;98589.05;212239;1327;139679;-62
2021/12/06 21:28:07;;;;;;;25.30;16.40;;;;;;;3.50;67.69;98582.52;212925;1324;139303;-61
2021/12/06 21:33:11;;;;;;;26.60;15.60;;;;;;;3.52;67.73;98573.98;212034;1325;139348;-60
2021/12/06 21:38:14;;;;;;;23.60;14.00;;;;;;;3.53;67.72;98576.94;212542;1325;139976;-60
2021/12/06 21:43:17;;;;;;;23.10;13.50;;;;;;;3.50;67.58;98578.83;212828;1321;140649;-60
2021/12/06 21:48:22;;;;;;;20.90;13.30;;;;;;;3.46;67.42;98583.52;212355;1326;140962;-63
2021/12/06 21:53:25;;;;;;;19.00;12.20;;;;;;;3.44;67.58;98585.22;212572;1325;139896;-59
2021/12/06 21:58:28;;;;;;;19.00;11.90;;;;;;;3.41;67.76;98575.68;212307;1325;138951;-58
2021/12/06 22:09:01;;;;;;;19.40;12.20;;;;;;;3.38;67.67;98574.73;212020;1328;139345;-61
2021/12/06 22:14:06;;;;;;;19.90;13.10;;;;;;;3.40;67.67;98575.88;212244;1325;139964;-61
2021/12/06 22:19:10;;;;;;;22.30;13.80;;;;;;;3.45;67.72;98574.45;212757;1323;139734;-63
2021/12/06 22:24:14;;;;;;;23.10;13.80;;;;;;;3.49;67.83;98578.68;212590;1326;139226;-58
2021/12/06 22:29:17;;;;;;;22.10;13.30;;;;;;;3.50;67.72;98585.30;212357;1322;139643;-59
2021/12/06 22:34:20;;;;;;;22.00;13.20;;;;;;;3.51;67.85;98586.67;212845;1322;139517;-61
2021/12/06 22:39:23;;;;;;;19.20;12.40;;;;;;;3.53;67.74;98590.46;213205;1322;139058;-58
2021/12/06 22:44:26;;;;;;;19.80;12.20;;;;;;;3.50;67.64;98586.55;212492;1326;139063;-61
2021/12/06 22:49:29;;;;;;;21.90;13.10;;;;;;;3.48;67.64;98583.11;212469;1326;139226;-59
2021/12/06 22:54:33;;;;;;;20.30;12.30;;;;;;;3.45;67.61;98585.89;212631;1322;139125;-58
2021/12/06 22:59:36;;;;;;;22.40;13.30;;;;;;;3.39;67.43;98586.98;212505;1322;139371;-62
2021/12/06 23:04:40;;;;;;;24.10;13.80;;;;;;;3.37;67.57;98583.92;212995;1325;140936;-61
2021/12/06 23:09:43;;;;;;;20.50;13.00;;;;;;;3.33;67.65;98588.96;212639;1323;139411;-58
2021/12/06 23:14:48;;;;;;;19.70;12.30;;;;;;;3.34;67.53;98599.29;212450;1318;139640;-60
2021/12/06 23:19:52;;;;;;;21.60;13.00;;;;;;;3.40;67.64;98601.88;212505;1322;139447;-61
2021/12/06 23:24:55;;;;;;;20.60;13.10;;;;;;;3.44;67.49;98591.86;212103;1324;138888;-58